sensor_id;sensor_type;location;lat;lon;timestamp;temperature;humidity
20459;DHT22;10388;52.314;7.938;2023-05-10T03:32:16;12.90;99.90
20459;DHT22;10388;52.314;7.938;2023-05-10T03:34:46;12.80;99.90
20459;DHT22;10388;52.314;7.938;2023-05-10T03:37:17;12.80;99.90
20459;DHT22;10388;52.314;7.938;2023-05-10T03:39:47;12.80;99.90
20459;DHT22;10388;52.314;7.938;2023-05-10T03:42:18;12.80;99.90
20459;DHT22;10388;52.314;7.938;2023-05-10T03:44:48;12.80;99.90
20459;DHT22;10388;52.314;7.938;2023-05-10T03:47:20;12.80;99.90
20459;DHT22;10388;52.314;7.938;2023-05-10T03:49:50;12.70;99.90
20459;DHT22;10388;52.314;7.938;2023-05-10T03:52:21;12.70;99.90
20459;DHT22;10388;52.314;7.938;2023-05-10T03:54:51;12.70;99.90
20459;DHT22;10388;52.314;7.938;2023-05-10T03:57:22;12.70;99.90
20459;DHT22;10388;52.314;7.938;2023-05-10T03:59:52;12.70;99.90
20459;DHT22;10388;52.314;7.938;2023-05-10T04:02:23;12.70;99.90
20459;DHT22;10388;52.314;7.938;2023-05-10T04:04:53;12.70;99.90
20459;DHT22;10388;52.314;7.938;2023-05-10T04:07:24;12.60;99.90
20459;DHT22;10388;52.314;7.938;2023-05-10T04:09:54;12.70;99.90
20459;DHT22;10388;52.314;7.938;2023-05-10T04:12:25;12.70;99.90
20459;DHT22;10388;52.314;7.938;2023-05-10T04:14:55;12.70;99.90
20459;DHT22;10388;52.314;7.938;2023-05-10T04:17:26;12.70;99.90
20459;DHT22;10388;52.314;7.938;2023-05-10T04:19:57;12.70;99.90
20459;DHT22;10388;52.314;7.938;2023-05-10T04:22:27;12.70;99.90
20459;DHT22;10388;52.314;7.938;2023-05-10T04:24:59;12.70;99.90
20459;DHT22;10388;52.314;7.938;2023-05-10T04:27:30;12.60;99.90
20459;DHT22;10388;52.314;7.938;2023-05-10T04:30:01;12.60;99.90
20459;DHT22;10388;52.314;7.938;2023-05-10T04:32:32;12.60;99.90
20459;DHT22;10388;52.314;7.938;2023-05-10T04:35:02;12.60;99.90
20459;DHT22;10388;52.314;7.938;2023-05-10T04:37:34;12.70;99.90
20459;DHT22;10388;52.314;7.938;2023-05-10T04:40:06;12.60;99.90
20459;DHT22;10388;52.314;7.938;2023-05-10T04:42:36;12.60;99.90
20459;DHT22;10388;52.314;7.938;2023-05-10T04:45:07;12.60;99.90
20459;DHT22;10388;52.314;7.938;2023-05-10T04:47:39;12.70;99.90
20459;DHT22;10388;52.314;7.938;2023-05-10T04:50:10;12.70;99.90
20459;DHT22;10388;52.314;7.938;2023-05-10T04:52:40;12.60;99.90
20459;DHT22;10388;52.314;7.938;2023-05-10T04:55:11;12.60;99.90
20459;DHT22;10388;52.314;7.938;2023-05-10T04:57:41;12.60;99.90
20459;DHT22;10388;52.314;7.938;2023-05-10T05:00:12;12.70;99.90
20459;DHT22;10388;52.314;7.938;2023-05-10T05:02:44;12.70;99.90
20459;DHT22;10388;52.314;7.938;2023-05-10T05:05:15;12.70;99.90
20459;DHT22;10388;52.314;7.938;2023-05-10T05:07:46;12.70;99.90
20459;DHT22;10388;52.314;7.938;2023-05-10T05:10:16;12.70;99.90
20459;DHT22;10388;52.314;7.938;2023-05-10T05:12:47;12.70;99.90
20459;DHT22;10388;52.314;7.938;2023-05-10T05:15:17;12.80;99.90
20459;DHT22;10388;52.314;7.938;2023-05-10T05:17:48;12.80;99.90
20459;DHT22;10388;52.314;7.938;2023-05-10T05:20:18;12.80;99.90
20459;DHT22;10388;52.314;7.938;2023-05-10T05:22:49;12.70;99.90
20459;DHT22;10388;52.314;7.938;2023-05-10T05:25:20;12.80;99.90
20459;DHT22;10388;52.314;7.938;2023-05-10T05:27:50;12.80;99.90
20459;DHT22;10388;52.314;7.938;2023-05-10T05:30:21;12.90;99.90
20459;DHT22;10388;52.314;7.938;2023-05-10T05:32:51;12.80;99.90
20459;DHT22;10388;52.314;7.938;2023-05-10T05:35:22;12.90;99.90
20459;DHT22;10388;52.314;7.938;2023-05-10T05:37:53;12.90;99.90
20459;DHT22;10388;52.314;7.938;2023-05-10T05:40:23;12.90;99.90
20459;DHT22;10388;52.314;7.938;2023-05-10T05:42:54;12.90;99.90
20459;DHT22;10388;52.314;7.938;2023-05-10T05:45:24;12.90;99.90
20459;DHT22;10388;52.314;7.938;2023-05-10T05:47:55;12.90;99.90
20459;DHT22;10388;52.314;7.938;2023-05-10T05:50:26;12.90;99.90
20459;DHT22;10388;52.314;7.938;2023-05-10T05:52:56;12.90;99.90
20459;DHT22;10388;52.314;7.938;2023-05-10T05:55:27;12.80;99.90
20459;DHT22;10388;52.314;7.938;2023-05-10T05:57:58;12.90;99.90
20459;DHT22;10388;52.314;7.938;2023-05-10T06:00:29;12.90;99.90
20459;DHT22;10388;52.314;7.938;2023-05-10T06:02:59;13.00;99.90
20459;DHT22;10388;52.314;7.938;2023-05-10T06:05:30;13.00;99.90
20459;DHT22;10388;52.314;7.938;2023-05-10T06:08:00;12.90;99.90
20459;DHT22;10388;52.314;7.938;2023-05-10T06:10:31;12.90;99.90
20459;DHT22;10388;52.314;7.938;2023-05-10T06:13:02;12.90;99.90
20459;DHT22;10388;52.314;7.938;2023-05-10T06:15:33;12.90;99.90
20459;DHT22;10388;52.314;7.938;2023-05-10T06:18:03;12.90;99.90
20459;DHT22;10388;52.314;7.938;2023-05-10T06:20:34;13.00;99.90
20459;DHT22;10388;52.314;7.938;2023-05-10T06:23:04;13.00;99.90
20459;DHT22;10388;52.314;7.938;2023-05-10T06:25:35;13.00;99.90
20459;DHT22;10388;52.314;7.938;2023-05-10T06:28:05;13.00;99.90
20459;DHT22;10388;52.314;7.938;2023-05-10T06:30:36;13.00;99.90
20459;DHT22;10388;52.314;7.938;2023-05-10T06:33:07;13.10;99.90
20459;DHT22;10388;52.314;7.938;2023-05-10T06:35:38;13.20;99.90
20459;DHT22;10388;52.314;7.938;2023-05-10T06:38:09;13.20;99.90
20459;DHT22;10388;52.314;7.938;2023-05-10T06:40:41;13.30;99.90
20459;DHT22;10388;52.314;7.938;2023-05-10T06:43:12;13.30;99.90
20459;DHT22;10388;52.314;7.938;2023-05-10T06:45:43;13.30;99.90
20459;DHT22;10388;52.314;7.938;2023-05-10T06:48:13;13.40;99.90
20459;DHT22;10388;52.314;7.938;2023-05-10T06:50:44;13.40;99.90
20459;DHT22;10388;52.314;7.938;2023-05-10T06:53:14;13.50;99.90
20459;DHT22;10388;52.314;7.938;2023-05-10T06:55:45;13.50;99.90
20459;DHT22;10388;52.314;7.938;2023-05-10T06:58:16;13.50;99.90
20459;DHT22;10388;52.314;7.938;2023-05-10T07:00:47;13.70;99.90
20459;DHT22;10388;52.314;7.938;2023-05-10T07:03:17;13.80;99.90
20459;DHT22;10388;52.314;7.938;2023-05-10T07:05:48;13.90;99.90
20459;DHT22;10388;52.314;7.938;2023-05-10T07:08:18;13.90;99.90
20459;DHT22;10388;52.314;7.938;2023-05-10T07:10:49;14.00;99.90
20459;DHT22;10388;52.314;7.938;2023-05-10T07:13:19;14.00;99.90
20459;DHT22;10388;52.314;7.938;2023-05-10T07:15:50;13.90;99.90
20459;DHT22;10388;52.314;7.938;2023-05-10T07:18:20;13.90;99.90
20459;DHT22;10388;52.314;7.938;2023-05-10T07:20:51;14.00;99.90
20459;DHT22;10388;52.314;7.938;2023-05-10T07:23:21;14.00;99.90
20459;DHT22;10388;52.314;7.938;2023-05-10T07:25:52;14.00;99.90
20459;DHT22;10388;52.314;7.938;2023-05-10T07:28:23;13.90;99.90
20459;DHT22;10388;52.314;7.938;2023-05-10T07:30:54;13.90;99.90
20459;DHT22;10388;52.314;7.938;2023-05-10T07:33:25;13.90;99.90
20459;DHT22;10388;52.314;7.938;2023-05-10T07:35:55;13.80;99.90
20459;DHT22;10388;52.314;7.938;2023-05-10T07:38:26;13.80;99.90
20459;DHT22;10388;52.314;7.938;2023-05-10T07:40:56;13.80;99.90
20459;DHT22;10388;52.314;7.938;2023-05-10T07:43:27;13.80;99.90
20459;DHT22;10388;52.314;7.938;2023-05-10T07:45:57;13.80;99.90
20459;DHT22;10388;52.314;7.938;2023-05-10T07:48:29;13.70;99.90
20459;DHT22;10388;52.314;7.938;2023-05-10T07:51:00;13.80;99.90
20459;DHT22;10388;52.314;7.938;2023-05-10T07:53:30;13.90;99.90
20459;DHT22;10388;52.314;7.938;2023-05-10T07:58:54;14.00;99.90
20459;DHT22;10388;52.314;7.938;2023-05-10T08:01:25;14.20;99.90
20459;DHT22;10388;52.314;7.938;2023-05-10T08:03:56;14.60;99.90
20459;DHT22;10388;52.314;7.938;2023-05-10T08:06:26;14.80;99.90
20459;DHT22;10388;52.314;7.938;2023-05-10T08:08:58;15.00;99.90
20459;DHT22;10388;52.314;7.938;2023-05-10T08:11:28;15.10;99.90
20459;DHT22;10388;52.314;7.938;2023-05-10T08:13:59;15.20;99.90
20459;DHT22;10388;52.314;7.938;2023-05-10T08:16:30;15.00;99.90
20459;DHT22;10388;52.314;7.938;2023-05-10T08:19:00;14.90;99.90
20459;DHT22;10388;52.314;7.938;2023-05-10T08:21:31;15.10;99.90
20459;DHT22;10388;52.314;7.938;2023-05-10T08:24:01;15.30;99.90
20459;DHT22;10388;52.314;7.938;2023-05-10T08:26:32;15.50;99.90
20459;DHT22;10388;52.314;7.938;2023-05-10T08:29:03;15.50;99.90
20459;DHT22;10388;52.314;7.938;2023-05-10T08:31:33;15.50;99.90
20459;DHT22;10388;52.314;7.938;2023-05-10T08:34:04;15.60;99.90
20459;DHT22;10388;52.314;7.938;2023-05-10T08:36:34;15.70;99.90
20459;DHT22;10388;52.314;7.938;2023-05-10T08:39:05;16.00;99.90
20459;DHT22;10388;52.314;7.938;2023-05-10T08:41:38;16.10;99.90
20459;DHT22;10388;52.314;7.938;2023-05-10T08:44:09;16.00;99.90
20459;DHT22;10388;52.314;7.938;2023-05-10T08:46:41;15.90;99.90
20459;DHT22;10388;52.314;7.938;2023-05-10T08:49:17;16.00;99.90
20459;DHT22;10388;52.314;7.938;2023-05-10T08:51:51;16.10;99.90
20459;DHT22;10388;52.314;7.938;2023-05-10T08:54:25;16.20;99.90
20459;DHT22;10388;52.314;7.938;2023-05-10T08:56:56;16.20;99.90
20459;DHT22;10388;52.314;7.938;2023-05-10T08:59:27;16.20;99.90
20459;DHT22;10388;52.314;7.938;2023-05-10T09:01:58;15.90;99.90
20459;DHT22;10388;52.314;7.938;2023-05-10T09:04:29;16.00;99.90
20459;DHT22;10388;52.314;7.938;2023-05-10T09:07:01;15.90;99.90
20459;DHT22;10388;52.314;7.938;2023-05-10T09:09:31;15.90;99.90
20459;DHT22;10388;52.314;7.938;2023-05-10T09:12:02;15.90;99.90
20459;DHT22;10388;52.314;7.938;2023-05-10T09:14:34;16.00;99.90
20459;DHT22;10388;52.314;7.938;2023-05-10T09:17:05;16.00;99.90
20459;DHT22;10388;52.314;7.938;2023-05-10T09:19:36;16.20;99.90
20459;DHT22;10388;52.314;7.938;2023-05-10T09:22:07;16.20;99.90
20459;DHT22;10388;52.314;7.938;2023-05-10T09:24:37;16.10;99.90
20459;DHT22;10388;52.314;7.938;2023-05-10T09:27:12;16.10;99.90
20459;DHT22;10388;52.314;7.938;2023-05-10T09:29:43;16.00;99.90
20459;DHT22;10388;52.314;7.938;2023-05-10T09:32:14;16.00;99.90
20459;DHT22;10388;52.314;7.938;2023-05-10T09:34:45;16.00;99.90
20459;DHT22;10388;52.314;7.938;2023-05-10T09:37:29;15.90;99.90
20459;DHT22;10388;52.314;7.938;2023-05-10T09:40:00;15.70;99.90
20459;DHT22;10388;52.314;7.938;2023-05-10T09:42:30;15.60;99.90
20459;DHT22;10388;52.314;7.938;2023-05-10T09:45:03;15.70;99.90
20459;DHT22;10388;52.314;7.938;2023-05-10T09:47:34;15.90;99.90
20459;DHT22;10388;52.314;7.938;2023-05-10T09:50:05;16.10;99.90
20459;DHT22;10388;52.314;7.938;2023-05-10T09:52:46;16.30;99.90
20459;DHT22;10388;52.314;7.938;2023-05-10T09:55:25;16.40;99.90
20459;DHT22;10388;52.314;7.938;2023-05-10T09:58:00;16.40;99.90
20459;DHT22;10388;52.314;7.938;2023-05-10T10:00:36;16.20;99.90
20459;DHT22;10388;52.314;7.938;2023-05-10T10:03:13;16.00;99.90
20459;DHT22;10388;52.314;7.938;2023-05-10T10:05:44;15.90;99.90
20459;DHT22;10388;52.314;7.938;2023-05-10T10:08:17;15.90;99.90
20459;DHT22;10388;52.314;7.938;2023-05-10T10:10:48;16.00;99.90
20459;DHT22;10388;52.314;7.938;2023-05-10T10:13:19;16.00;99.90
20459;DHT22;10388;52.314;7.938;2023-05-10T10:15:50;16.10;99.90
20459;DHT22;10388;52.314;7.938;2023-05-10T10:18:21;16.20;99.90
20459;DHT22;10388;52.314;7.938;2023-05-10T10:20:57;16.40;99.90
20459;DHT22;10388;52.314;7.938;2023-05-10T10:23:28;16.40;99.90
20459;DHT22;10388;52.314;7.938;2023-05-10T10:25:59;16.40;99.90
20459;DHT22;10388;52.314;7.938;2023-05-10T10:28:57;16.70;99.90
20459;DHT22;10388;52.314;7.938;2023-05-10T10:31:39;16.80;99.90
20459;DHT22;10388;52.314;7.938;2023-05-10T10:34:10;17.00;99.90
20459;DHT22;10388;52.314;7.938;2023-05-10T10:36:47;17.00;99.90
20459;DHT22;10388;52.314;7.938;2023-05-10T10:39:20;16.90;99.90
20459;DHT22;10388;52.314;7.938;2023-05-10T10:41:55;17.00;99.90
20459;DHT22;10388;52.314;7.938;2023-05-10T10:49:51;16.90;99.90
20459;DHT22;10388;52.314;7.938;2023-05-10T10:52:24;17.00;99.90
20459;DHT22;10388;52.314;7.938;2023-05-10T10:55:11;16.90;99.90
20459;DHT22;10388;52.314;7.938;2023-05-10T10:57:49;16.90;99.90
20459;DHT22;10388;52.314;7.938;2023-05-10T11:00:28;16.90;99.90
20459;DHT22;10388;52.314;7.938;2023-05-10T11:03:03;16.80;99.90
20459;DHT22;10388;52.314;7.938;2023-05-10T11:08:17;17.10;99.90
20459;DHT22;10388;52.314;7.938;2023-05-10T11:10:52;17.30;99.90
20459;DHT22;10388;52.314;7.938;2023-05-10T11:16:42;17.10;99.90
20459;DHT22;10388;52.314;7.938;2023-05-10T11:19:15;16.80;99.90
20459;DHT22;10388;52.314;7.938;2023-05-10T11:21:49;16.70;99.90
20459;DHT22;10388;52.314;7.938;2023-05-10T11:24:22;16.50;99.90
20459;DHT22;10388;52.314;7.938;2023-05-10T11:26:53;16.50;99.90
20459;DHT22;10388;52.314;7.938;2023-05-10T11:29:24;16.70;99.90
20459;DHT22;10388;52.314;7.938;2023-05-10T11:31:58;16.80;99.90
20459;DHT22;10388;52.314;7.938;2023-05-10T11:34:30;17.10;99.90
20459;DHT22;10388;52.314;7.938;2023-05-10T11:37:01;17.30;99.90
20459;DHT22;10388;52.314;7.938;2023-05-10T11:39:32;17.40;99.90
20459;DHT22;10388;52.314;7.938;2023-05-10T11:42:03;17.50;99.90
20459;DHT22;10388;52.314;7.938;2023-05-10T11:44:34;17.80;99.90
20459;DHT22;10388;52.314;7.938;2023-05-10T11:47:05;18.10;99.90
20459;DHT22;10388;52.314;7.938;2023-05-10T11:49:35;18.50;99.90
20459;DHT22;10388;52.314;7.938;2023-05-10T11:52:07;18.70;99.90
20459;DHT22;10388;52.314;7.938;2023-05-10T11:54:45;18.60;99.90
20459;DHT22;10388;52.314;7.938;2023-05-10T11:57:26;18.50;99.90
20459;DHT22;10388;52.314;7.938;2023-05-10T11:59:57;18.40;99.90
20459;DHT22;10388;52.314;7.938;2023-05-10T12:02:28;18.60;99.90
20459;DHT22;10388;52.314;7.938;2023-05-10T12:05:00;18.80;99.90
20459;DHT22;10388;52.314;7.938;2023-05-10T12:07:31;18.70;99.90
20459;DHT22;10388;52.314;7.938;2023-05-10T12:10:10;18.50;99.90
20459;DHT22;10388;52.314;7.938;2023-05-10T12:12:46;18.80;99.90
20459;DHT22;10388;52.314;7.938;2023-05-10T12:15:22;18.90;99.90
20459;DHT22;10388;52.314;7.938;2023-05-10T12:17:53;18.90;99.90
20459;DHT22;10388;52.314;7.938;2023-05-10T12:20:27;18.80;99.90
20459;DHT22;10388;52.314;7.938;2023-05-10T12:22:58;18.90;99.90
20459;DHT22;10388;52.314;7.938;2023-05-10T12:25:31;19.10;99.90
20459;DHT22;10388;52.314;7.938;2023-05-10T12:28:06;19.10;99.90
20459;DHT22;10388;52.314;7.938;2023-05-10T12:30:38;19.20;99.90
20459;DHT22;10388;52.314;7.938;2023-05-10T12:33:11;19.10;99.90
20459;DHT22;10388;52.314;7.938;2023-05-10T12:35:49;19.20;99.90
20459;DHT22;10388;52.314;7.938;2023-05-10T12:38:34;19.40;99.90
20459;DHT22;10388;52.314;7.938;2023-05-10T12:41:10;19.70;99.90
20459;DHT22;10388;52.314;7.938;2023-05-10T12:43:41;19.60;99.90
20459;DHT22;10388;52.314;7.938;2023-05-10T12:46:13;19.70;99.90
20459;DHT22;10388;52.314;7.938;2023-05-10T12:48:45;19.80;99.90
20459;DHT22;10388;52.314;7.938;2023-05-10T12:51:25;19.40;99.90
20459;DHT22;10388;52.314;7.938;2023-05-10T12:53:55;19.70;99.90
20459;DHT22;10388;52.314;7.938;2023-05-10T12:56:26;19.70;99.90
20459;DHT22;10388;52.314;7.938;2023-05-10T12:58:56;19.90;99.90
20459;DHT22;10388;52.314;7.938;2023-05-10T13:01:27;20.60;99.90
20459;DHT22;10388;52.314;7.938;2023-05-10T13:03:57;20.70;99.90
20459;DHT22;10388;52.314;7.938;2023-05-10T13:06:28;20.90;99.90
20459;DHT22;10388;52.314;7.938;2023-05-10T13:08:58;20.90;99.90
20459;DHT22;10388;52.314;7.938;2023-05-10T13:11:29;21.20;99.90
20459;DHT22;10388;52.314;7.938;2023-05-10T13:13:59;21.20;99.90
20459;DHT22;10388;52.314;7.938;2023-05-10T13:16:30;20.90;99.90
20459;DHT22;10388;52.314;7.938;2023-05-10T13:19:01;21.10;99.90
20459;DHT22;10388;52.314;7.938;2023-05-10T13:21:32;21.30;99.90
20459;DHT22;10388;52.314;7.938;2023-05-10T13:24:02;20.90;99.90
20459;DHT22;10388;52.314;7.938;2023-05-10T13:26:33;20.50;99.90
20459;DHT22;10388;52.314;7.938;2023-05-10T13:29:04;20.10;99.90
20459;DHT22;10388;52.314;7.938;2023-05-10T13:31:35;19.50;99.90
20459;DHT22;10388;52.314;7.938;2023-05-10T13:34:06;19.40;99.90
20459;DHT22;10388;52.314;7.938;2023-05-10T13:36:36;19.40;99.90
20459;DHT22;10388;52.314;7.938;2023-05-10T13:39:07;19.60;99.90
20459;DHT22;10388;52.314;7.938;2023-05-10T13:41:37;19.90;99.90
20459;DHT22;10388;52.314;7.938;2023-05-10T13:44:08;19.90;99.90
20459;DHT22;10388;52.314;7.938;2023-05-10T13:46:39;19.70;99.90
20459;DHT22;10388;52.314;7.938;2023-05-10T13:49:09;19.40;99.90
20459;DHT22;10388;52.314;7.938;2023-05-10T13:51:40;19.50;99.90
20459;DHT22;10388;52.314;7.938;2023-05-10T13:54:10;19.50;99.90
20459;DHT22;10388;52.314;7.938;2023-05-10T13:56:42;19.70;99.90
20459;DHT22;10388;52.314;7.938;2023-05-10T13:59:13;19.70;99.90
20459;DHT22;10388;52.314;7.938;2023-05-10T14:01:44;19.60;99.90
20459;DHT22;10388;52.314;7.938;2023-05-10T14:04:14;19.40;99.90
20459;DHT22;10388;52.314;7.938;2023-05-10T14:06:45;19.60;99.90
20459;DHT22;10388;52.314;7.938;2023-05-10T14:09:16;19.70;99.90
20459;DHT22;10388;52.314;7.938;2023-05-10T14:11:47;19.60;99.90
20459;DHT22;10388;52.314;7.938;2023-05-10T14:14:17;19.70;99.90
20459;DHT22;10388;52.314;7.938;2023-05-10T14:16:48;19.60;99.90
20459;DHT22;10388;52.314;7.938;2023-05-10T14:19:18;19.70;99.90
20459;DHT22;10388;52.314;7.938;2023-05-10T14:21:49;19.80;99.90
20459;DHT22;10388;52.314;7.938;2023-05-10T14:24:20;19.90;99.90
20459;DHT22;10388;52.314;7.938;2023-05-10T14:26:50;19.60;99.90
20459;DHT22;10388;52.314;7.938;2023-05-10T14:29:23;19.50;99.90
20459;DHT22;10388;52.314;7.938;2023-05-10T14:31:54;19.70;99.90
20459;DHT22;10388;52.314;7.938;2023-05-10T14:34:25;19.70;99.90
20459;DHT22;10388;52.314;7.938;2023-05-10T14:36:55;19.60;99.90
20459;DHT22;10388;52.314;7.938;2023-05-10T14:39:26;19.40;99.90
20459;DHT22;10388;52.314;7.938;2023-05-10T14:41:59;19.40;99.90
20459;DHT22;10388;52.314;7.938;2023-05-10T14:44:30;19.00;99.90
20459;DHT22;10388;52.314;7.938;2023-05-10T14:47:00;19.10;99.90
20459;DHT22;10388;52.314;7.938;2023-05-10T14:49:31;19.10;99.90
20459;DHT22;10388;52.314;7.938;2023-05-10T14:52:01;19.30;99.90
20459;DHT22;10388;52.314;7.938;2023-05-10T14:54:32;19.20;99.90
20459;DHT22;10388;52.314;7.938;2023-05-10T14:57:03;19.30;99.90
20459;DHT22;10388;52.314;7.938;2023-05-10T14:59:34;19.40;99.90
20459;DHT22;10388;52.314;7.938;2023-05-10T15:02:05;19.40;99.90
20459;DHT22;10388;52.314;7.938;2023-05-10T15:04:36;19.30;99.90
20459;DHT22;10388;52.314;7.938;2023-05-10T15:07:06;19.50;99.90
20459;DHT22;10388;52.314;7.938;2023-05-10T15:09:37;19.40;99.90
20459;DHT22;10388;52.314;7.938;2023-05-10T15:12:07;19.30;99.90
20459;DHT22;10388;52.314;7.938;2023-05-10T15:14:38;19.30;99.90
20459;DHT22;10388;52.314;7.938;2023-05-10T15:17:08;19.40;99.90
20459;DHT22;10388;52.314;7.938;2023-05-10T15:19:39;19.30;99.90
20459;DHT22;10388;52.314;7.938;2023-05-10T15:22:09;19.30;99.90
20459;DHT22;10388;52.314;7.938;2023-05-10T15:24:40;19.10;99.90
20459;DHT22;10388;52.314;7.938;2023-05-10T15:27:11;19.20;99.90
20459;DHT22;10388;52.314;7.938;2023-05-10T15:29:41;19.40;99.90
20459;DHT22;10388;52.314;7.938;2023-05-10T15:32:12;19.20;99.90
20459;DHT22;10388;52.314;7.938;2023-05-10T15:34:42;19.10;99.90
20459;DHT22;10388;52.314;7.938;2023-05-10T15:37:13;19.20;99.90
20459;DHT22;10388;52.314;7.938;2023-05-10T15:39:44;19.00;99.90
20459;DHT22;10388;52.314;7.938;2023-05-10T15:42:14;18.80;99.90
20459;DHT22;10388;52.314;7.938;2023-05-10T15:44:45;18.80;99.90
20459;DHT22;10388;52.314;7.938;2023-05-10T15:47:20;18.90;99.90
20459;DHT22;10388;52.314;7.938;2023-05-10T15:49:50;18.90;99.90
20459;DHT22;10388;52.314;7.938;2023-05-10T15:52:21;18.70;99.90
20459;DHT22;10388;52.314;7.938;2023-05-10T15:54:53;18.50;99.90
20459;DHT22;10388;52.314;7.938;2023-05-10T15:57:23;18.40;99.90
20459;DHT22;10388;52.314;7.938;2023-05-10T15:59:54;18.60;99.90
20459;DHT22;10388;52.314;7.938;2023-05-10T16:02:25;18.40;99.90
20459;DHT22;10388;52.314;7.938;2023-05-10T16:04:56;18.30;99.90
20459;DHT22;10388;52.314;7.938;2023-05-10T16:07:26;18.30;99.90
20459;DHT22;10388;52.314;7.938;2023-05-10T16:09:57;18.30;99.90
20459;DHT22;10388;52.314;7.938;2023-05-10T16:12:27;18.40;99.90
20459;DHT22;10388;52.314;7.938;2023-05-10T16:14:58;18.30;99.90
20459;DHT22;10388;52.314;7.938;2023-05-10T16:17:28;18.10;99.90
20459;DHT22;10388;52.314;7.938;2023-05-10T16:19:59;18.20;99.90
20459;DHT22;10388;52.314;7.938;2023-05-10T16:22:30;18.10;99.90
20459;DHT22;10388;52.314;7.938;2023-05-10T16:25:01;18.10;99.90
20459;DHT22;10388;52.314;7.938;2023-05-10T16:27:31;18.10;99.90
20459;DHT22;10388;52.314;7.938;2023-05-10T16:30:03;17.90;99.90
20459;DHT22;10388;52.314;7.938;2023-05-10T16:32:33;17.80;99.90
20459;DHT22;10388;52.314;7.938;2023-05-10T16:35:04;17.80;99.90
20459;DHT22;10388;52.314;7.938;2023-05-10T16:37:35;17.60;99.90
20459;DHT22;10388;52.314;7.938;2023-05-10T16:40:06;17.60;99.90
20459;DHT22;10388;52.314;7.938;2023-05-10T16:42:37;17.60;99.90
20459;DHT22;10388;52.314;7.938;2023-05-10T16:45:07;17.60;99.90
20459;DHT22;10388;52.314;7.938;2023-05-10T16:47:39;17.50;99.90
20459;DHT22;10388;52.314;7.938;2023-05-10T16:50:10;17.60;99.90
20459;DHT22;10388;52.314;7.938;2023-05-10T16:52:40;17.50;99.90
20459;DHT22;10388;52.314;7.938;2023-05-10T16:55:11;17.50;99.90
20459;DHT22;10388;52.314;7.938;2023-05-10T16:57:41;17.40;99.90
20459;DHT22;10388;52.314;7.938;2023-05-10T17:00:12;17.50;99.90
20459;DHT22;10388;52.314;7.938;2023-05-10T17:02:43;17.40;99.90
20459;DHT22;10388;52.314;7.938;2023-05-10T17:05:13;17.30;99.90
20459;DHT22;10388;52.314;7.938;2023-05-10T17:07:44;17.30;99.90
20459;DHT22;10388;52.314;7.938;2023-05-10T17:10:15;17.40;99.90
20459;DHT22;10388;52.314;7.938;2023-05-10T17:12:45;17.40;99.90
20459;DHT22;10388;52.314;7.938;2023-05-10T17:15:16;17.40;99.90
20459;DHT22;10388;52.314;7.938;2023-05-10T17:17:48;17.40;99.90
20459;DHT22;10388;52.314;7.938;2023-05-10T17:20:19;17.40;99.90
20459;DHT22;10388;52.314;7.938;2023-05-10T17:22:49;17.40;99.90
20459;DHT22;10388;52.314;7.938;2023-05-10T17:25:20;17.40;99.90
20459;DHT22;10388;52.314;7.938;2023-05-10T17:27:50;17.30;99.90
20459;DHT22;10388;52.314;7.938;2023-05-10T17:30:21;17.30;99.90
20459;DHT22;10388;52.314;7.938;2023-05-10T17:32:55;17.20;99.90
20459;DHT22;10388;52.314;7.938;2023-05-10T17:35:26;17.30;99.90
20459;DHT22;10388;52.314;7.938;2023-05-10T17:37:57;17.20;99.90
20459;DHT22;10388;52.314;7.938;2023-05-10T17:40:27;17.10;99.90
20459;DHT22;10388;52.314;7.938;2023-05-10T17:42:58;17.10;99.90
20459;DHT22;10388;52.314;7.938;2023-05-10T17:45:28;17.00;99.90
20459;DHT22;10388;52.314;7.938;2023-05-10T17:47:59;17.00;99.90
20459;DHT22;10388;52.314;7.938;2023-05-10T17:50:30;16.90;99.90
20459;DHT22;10388;52.314;7.938;2023-05-10T17:53:01;16.90;99.90
20459;DHT22;10388;52.314;7.938;2023-05-10T17:55:32;16.90;99.90
20459;DHT22;10388;52.314;7.938;2023-05-10T17:58:02;16.90;99.90
20459;DHT22;10388;52.314;7.938;2023-05-10T18:00:33;16.90;99.90
20459;DHT22;10388;52.314;7.938;2023-05-10T18:03:04;16.80;99.90
20459;DHT22;10388;52.314;7.938;2023-05-10T18:05:36;16.80;99.90
20459;DHT22;10388;52.314;7.938;2023-05-10T18:08:06;16.70;99.90
20459;DHT22;10388;52.314;7.938;2023-05-10T18:10:38;16.60;99.90
20459;DHT22;10388;52.314;7.938;2023-05-10T18:13:08;16.60;99.90
20459;DHT22;10388;52.314;7.938;2023-05-10T18:15:39;16.50;99.90
20459;DHT22;10388;52.314;7.938;2023-05-10T18:18:10;16.50;99.90
20459;DHT22;10388;52.314;7.938;2023-05-10T18:20:40;16.50;99.90
20459;DHT22;10388;52.314;7.938;2023-05-10T18:23:11;16.40;99.90
20459;DHT22;10388;52.314;7.938;2023-05-10T18:25:42;16.40;99.90
20459;DHT22;10388;52.314;7.938;2023-05-10T18:28:13;16.30;99.90
20459;DHT22;10388;52.314;7.938;2023-05-10T18:30:43;16.30;99.90
20459;DHT22;10388;52.314;7.938;2023-05-10T18:33:14;16.20;99.90
20459;DHT22;10388;52.314;7.938;2023-05-10T18:35:45;16.10;99.90
20459;DHT22;10388;52.314;7.938;2023-05-10T18:38:16;16.00;99.90
20459;DHT22;10388;52.314;7.938;2023-05-10T18:40:46;16.00;99.90
20459;DHT22;10388;52.314;7.938;2023-05-10T18:43:17;15.90;99.90
20459;DHT22;10388;52.314;7.938;2023-05-10T18:45:47;15.80;99.90
20459;DHT22;10388;52.314;7.938;2023-05-10T18:48:20;15.80;99.90
20459;DHT22;10388;52.314;7.938;2023-05-10T18:50:50;15.70;99.90
20459;DHT22;10388;52.314;7.938;2023-05-10T18:53:21;15.60;99.90
20459;DHT22;10388;52.314;7.938;2023-05-10T18:55:58;15.50;99.90
20459;DHT22;10388;52.314;7.938;2023-05-10T18:58:29;15.50;99.90
20459;DHT22;10388;52.314;7.938;2023-05-10T19:00:59;15.40;99.90
20459;DHT22;10388;52.314;7.938;2023-05-10T19:03:30;15.40;99.90
20459;DHT22;10388;52.314;7.938;2023-05-10T19:06:00;15.30;99.90
20459;DHT22;10388;52.314;7.938;2023-05-10T19:08:31;15.30;99.90
20459;DHT22;10388;52.314;7.938;2023-05-10T19:11:02;15.20;99.90
20459;DHT22;10388;52.314;7.938;2023-05-10T19:13:32;15.20;99.90
20459;DHT22;10388;52.314;7.938;2023-05-10T19:16:10;15.20;99.90
20459;DHT22;10388;52.314;7.938;2023-05-10T19:18:44;15.10;99.90
20459;DHT22;10388;52.314;7.938;2023-05-10T19:21:15;15.00;99.90
20459;DHT22;10388;52.314;7.938;2023-05-10T19:23:46;15.00;99.90
20459;DHT22;10388;52.314;7.938;2023-05-10T19:26:17;14.90;99.90
20459;DHT22;10388;52.314;7.938;2023-05-10T19:28:49;14.90;99.90
20459;DHT22;10388;52.314;7.938;2023-05-10T19:31:20;14.90;99.90
20459;DHT22;10388;52.314;7.938;2023-05-10T19:33:50;14.80;99.90
20459;DHT22;10388;52.314;7.938;2023-05-10T19:36:22;14.80;99.90
20459;DHT22;10388;52.314;7.938;2023-05-10T19:38:52;14.80;99.90
20459;DHT22;10388;52.314;7.938;2023-05-10T19:41:23;14.80;99.90